createdAt,value
2018-05-21T00:01:36.996Z,3.73
2018-05-21T00:04:05.288Z,3.50
2018-05-21T00:06:33.593Z,3.00
2018-05-21T00:09:01.129Z,3.20
2018-05-21T00:11:28.692Z,3.30
2018-05-21T00:13:56.225Z,3.20
2018-05-21T00:16:23.764Z,3.33
2018-05-21T00:18:51.287Z,3.27
2018-05-21T00:21:18.857Z,3.40
2018-05-21T00:23:46.405Z,3.50
2018-05-21T00:26:13.945Z,3.33
2018-05-21T00:28:41.476Z,3.13
2018-05-21T00:31:09.003Z,3.40
2018-05-21T00:33:36.513Z,3.27
2018-05-21T00:36:04.044Z,3.40
2018-05-21T00:38:32.325Z,3.00
2018-05-21T00:41:00.630Z,3.30
2018-05-21T00:43:28.144Z,2.80
2018-05-21T00:45:55.676Z,3.20
2018-05-21T00:48:23.197Z,3.03
2018-05-21T00:50:50.728Z,3.00
2018-05-21T00:53:18.249Z,3.30
2018-05-21T00:55:45.789Z,3.20
2018-05-21T00:58:13.303Z,3.30
2018-05-21T01:00:41.613Z,3.23
2018-05-21T01:03:09.138Z,3.93
2018-05-21T01:05:36.677Z,4.37
2018-05-21T01:08:04.451Z,3.90
2018-05-21T01:10:32.736Z,4.40
2018-05-21T01:13:00.285Z,4.50
2018-05-21T01:15:28.564Z,4.57
2018-05-21T01:17:56.862Z,3.97
2018-05-21T01:20:24.375Z,4.00
2018-05-21T01:22:51.901Z,3.80
2018-05-21T01:25:19.416Z,3.10
2018-05-21T01:27:46.949Z,3.90
2018-05-21T01:30:14.481Z,3.57
2018-05-21T01:32:42.026Z,3.50
2018-05-21T01:35:09.580Z,3.93
2018-05-21T01:37:37.115Z,3.40
2018-05-21T01:40:04.638Z,3.30
2018-05-21T01:42:32.189Z,3.63
2018-05-21T01:44:59.707Z,3.37
2018-05-21T01:47:27.248Z,3.40
2018-05-21T01:49:54.773Z,3.30
2018-05-21T01:52:22.305Z,3.50
2018-05-21T01:54:49.811Z,3.50
2018-05-21T01:57:17.348Z,3.00
2018-05-21T01:59:44.860Z,3.50
2018-05-21T02:02:12.399Z,3.60
2018-05-21T02:04:39.933Z,3.23
2018-05-21T02:07:07.506Z,3.67
2018-05-21T02:09:35.026Z,3.33
2018-05-21T02:12:03.324Z,3.40
2018-05-21T02:14:30.854Z,4.50
2018-05-21T02:16:58.511Z,4.07
2018-05-21T02:19:26.048Z,4.57
2018-05-21T02:21:53.561Z,3.57
2018-05-21T02:24:21.106Z,3.40
2018-05-21T02:26:48.661Z,3.87
2018-05-21T02:29:16.201Z,3.53
2018-05-21T02:31:43.706Z,4.07
2018-05-21T02:34:11.245Z,4.20
2018-05-21T02:36:39.524Z,4.10
2018-05-21T02:39:07.146Z,3.47
2018-05-21T02:41:34.610Z,3.90
2018-05-21T02:44:02.149Z,4.10
2018-05-21T02:46:29.668Z,3.40
2018-05-21T02:48:57.191Z,4.17
2018-05-21T02:51:24.700Z,4.00
2018-05-21T02:53:52.236Z,3.53
2018-05-21T02:56:19.767Z,4.00
2018-05-21T02:58:48.092Z,3.70
2018-05-21T03:01:15.625Z,3.83
2018-05-21T03:03:43.147Z,3.63
2018-05-21T03:06:10.672Z,3.60
2018-05-21T03:08:38.259Z,3.63
2018-05-21T03:11:05.762Z,3.57
2018-05-21T03:13:33.296Z,3.80
2018-05-21T03:16:00.819Z,3.90
2018-05-21T03:18:28.393Z,4.00
2018-05-21T03:20:55.904Z,3.53
2018-05-21T03:23:23.429Z,4.03
2018-05-21T03:25:50.969Z,3.87
2018-05-21T03:28:18.495Z,3.93
2018-05-21T03:30:46.051Z,3.63
2018-05-21T03:33:13.593Z,3.47
2018-05-21T03:35:41.125Z,4.10
2018-05-21T03:38:08.658Z,4.00
2018-05-21T03:40:36.957Z,3.80
2018-05-21T03:43:05.153Z,3.70
2018-05-21T03:45:32.771Z,3.80
2018-05-21T03:48:01.064Z,4.50
2018-05-21T03:50:29.367Z,3.90
2018-05-21T03:52:56.936Z,3.67
2018-05-21T03:55:24.733Z,3.80
2018-05-21T03:57:52.265Z,3.67
2018-05-21T04:00:31.580Z,3.70
2018-05-21T04:03:10.837Z,4.00
2018-05-21T04:05:38.382Z,4.00
2018-05-21T04:08:05.926Z,4.53
2018-05-21T04:10:33.475Z,4.13
2018-05-21T04:13:01.073Z,4.17
2018-05-21T04:15:28.617Z,4.67
2018-05-21T04:17:56.141Z,4.20
2018-05-21T04:20:23.672Z,4.50
2018-05-21T04:22:51.953Z,4.70
2018-05-21T04:25:19.479Z,4.43
2018-05-21T04:27:47.005Z,3.87
2018-05-21T04:30:14.550Z,4.20
2018-05-21T04:32:42.074Z,4.23
2018-05-21T04:35:09.604Z,4.07
2018-05-21T04:37:37.128Z,4.57
2018-05-21T04:40:04.644Z,3.80
2018-05-21T04:42:32.181Z,3.57
2018-05-21T04:44:59.687Z,4.00
2018-05-21T04:47:27.217Z,4.10
2018-05-21T04:49:55.534Z,3.50
2018-05-21T04:52:23.067Z,3.83
2018-05-21T04:54:50.643Z,4.00
2018-05-21T04:57:18.267Z,3.73
2018-05-21T04:59:46.624Z,3.87
2018-05-21T05:02:14.175Z,3.10
2018-05-21T05:04:41.713Z,3.50
2018-05-21T05:07:09.269Z,4.30
2018-05-21T05:09:36.802Z,3.47
2018-05-21T05:12:05.119Z,3.57
2018-05-21T05:14:32.641Z,3.43
2018-05-21T05:17:00.194Z,3.30
2018-05-21T05:19:27.725Z,3.20
2018-05-21T05:21:55.275Z,3.40
2018-05-21T05:24:22.809Z,3.70
2018-05-21T05:26:50.386Z,3.33
2018-05-21T05:29:17.957Z,3.90
2018-05-21T05:31:46.296Z,3.70
2018-05-21T05:34:13.842Z,3.67
2018-05-21T05:36:41.390Z,3.20
2018-05-21T05:39:08.938Z,3.10
2018-05-21T05:41:36.509Z,3.80
2018-05-21T05:44:04.059Z,3.13
2018-05-21T05:46:31.596Z,3.40
2018-05-21T05:48:59.142Z,3.40
2018-05-21T05:51:27.428Z,3.50
2018-05-21T05:53:54.979Z,3.40
2018-05-21T05:56:23.275Z,3.53
2018-05-21T05:58:50.811Z,3.30
2018-05-21T06:01:19.096Z,3.77
2018-05-21T06:03:46.641Z,3.60
2018-05-21T06:06:14.973Z,3.50
2018-05-21T06:08:42.553Z,3.60
2018-05-21T06:11:10.086Z,3.60
2018-05-21T06:13:38.943Z,3.60
2018-05-21T06:16:06.575Z,3.60
2018-05-21T06:18:34.147Z,3.43
2018-05-21T06:21:02.427Z,3.50
2018-05-21T06:23:30.976Z,3.17
2018-05-21T06:25:58.589Z,3.50
2018-05-21T06:28:26.075Z,3.43
2018-05-21T06:30:53.611Z,3.77
2018-05-21T06:33:21.164Z,3.20
2018-05-21T06:35:48.697Z,3.20
2018-05-21T06:38:16.223Z,3.23
2018-05-21T06:40:43.748Z,3.30
2018-05-21T06:43:11.290Z,3.40
2018-05-21T06:45:39.223Z,3.30
2018-05-21T06:48:07.518Z,3.20
2018-05-21T06:50:35.065Z,3.33
2018-05-21T06:53:03.432Z,3.20
2018-05-21T06:55:30.980Z,3.10
2018-05-21T06:57:58.520Z,3.10
2018-05-21T07:00:26.087Z,3.17
2018-05-21T07:02:53.609Z,3.40
2018-05-21T07:05:21.172Z,2.90
2018-05-21T07:07:48.707Z,3.10
2018-05-21T07:10:16.261Z,3.27
2018-05-21T07:12:43.774Z,3.33
2018-05-21T07:15:12.788Z,3.27
2018-05-21T07:17:40.370Z,3.27
2018-05-21T07:20:07.929Z,3.40
2018-05-21T07:22:35.469Z,2.90
2018-05-21T07:25:03.011Z,3.03
2018-05-21T07:27:30.540Z,2.43
2018-05-21T07:29:58.072Z,2.50
2018-05-21T07:32:25.606Z,2.50
2018-05-21T07:34:53.139Z,2.30
2018-05-21T07:37:20.664Z,2.42
2018-05-21T07:39:48.221Z,2.67
2018-05-21T07:42:15.753Z,2.30
2018-05-21T07:44:43.373Z,2.40
2018-05-21T07:47:10.853Z,2.20
2018-05-21T07:49:39.206Z,2.22
2018-05-21T07:52:07.567Z,2.10
2018-05-21T07:54:35.107Z,2.08
2018-05-21T07:57:02.653Z,2.10
2018-05-21T07:59:30.216Z,2.00
2018-05-21T08:01:57.785Z,2.00
2018-05-21T08:04:25.349Z,2.12
2018-05-21T08:06:52.886Z,2.08
2018-05-21T08:09:20.410Z,2.00
2018-05-21T08:11:47.952Z,1.85
2018-05-21T08:14:15.496Z,2.28
2018-05-21T08:16:43.049Z,2.28
2018-05-21T08:19:10.587Z,2.22
2018-05-21T08:21:38.135Z,2.10
2018-05-21T08:24:05.658Z,2.37
2018-05-21T08:26:33.205Z,2.25
2018-05-21T08:29:01.496Z,2.37
2018-05-21T08:31:29.078Z,2.47
2018-05-21T08:33:56.646Z,2.28
2018-05-21T08:36:25.017Z,2.08
2018-05-21T08:38:52.556Z,2.20
2018-05-21T08:41:20.104Z,2.22
2018-05-21T08:43:47.744Z,2.28
2018-05-21T08:46:15.306Z,2.65
2018-05-21T08:48:43.648Z,2.35
2018-05-21T08:51:11.163Z,2.10
2018-05-21T08:53:38.775Z,2.40
2018-05-21T08:56:06.318Z,2.58
2018-05-21T08:58:33.871Z,2.45
2018-05-21T09:01:01.401Z,2.33
2018-05-21T09:03:28.942Z,2.47
2018-05-21T09:05:56.511Z,2.75
2018-05-21T09:08:24.813Z,2.55
2018-05-21T09:10:52.357Z,2.75
2018-05-21T09:13:19.984Z,2.70
2018-05-21T09:15:47.520Z,2.90
2018-05-21T09:18:15.113Z,2.75
2018-05-21T09:20:42.652Z,2.70
2018-05-21T09:23:10.212Z,2.83
2018-05-21T09:25:37.736Z,2.78
2018-05-21T09:28:05.283Z,3.25
2018-05-21T09:30:32.809Z,2.40
2018-05-21T09:33:00.556Z,2.40
2018-05-21T09:35:28.852Z,2.62
2018-05-21T09:37:56.448Z,2.55
2018-05-21T09:40:23.974Z,2.50
2018-05-21T09:42:51.741Z,2.70
2018-05-21T09:45:19.341Z,2.65
2018-05-21T09:47:47.850Z,3.00
2018-05-21T09:50:15.380Z,2.70
2018-05-21T09:52:42.968Z,2.73
2018-05-21T09:55:10.615Z,2.80
2018-05-21T09:57:38.736Z,2.83
2018-05-21T10:00:06.272Z,2.60
2018-05-21T10:02:33.821Z,3.00
2018-05-21T10:05:01.364Z,2.80
2018-05-21T10:07:29.850Z,2.30
2018-05-21T10:09:58.175Z,2.60
2018-05-21T10:12:25.778Z,2.67
2018-05-21T10:14:53.318Z,2.57
2018-05-21T10:17:20.840Z,2.83
2018-05-21T10:19:48.376Z,2.33
2018-05-21T10:22:15.904Z,2.67
2018-05-21T10:24:44.242Z,2.60
2018-05-21T10:27:11.777Z,2.47
2018-05-21T10:29:39.341Z,2.60
2018-05-21T10:32:06.914Z,2.20
2018-05-21T10:34:34.465Z,2.60
2018-05-21T10:37:02.035Z,2.27
2018-05-21T10:39:29.572Z,2.17
2018-05-21T10:41:57.101Z,2.00
2018-05-21T10:44:26.096Z,2.53
2018-05-21T10:46:53.653Z,2.40
2018-05-21T10:49:21.213Z,2.30
2018-05-21T10:51:48.737Z,2.20
2018-05-21T10:54:16.272Z,2.30
2018-05-21T10:56:43.824Z,2.13
2018-05-21T10:59:11.388Z,2.27
2018-05-21T11:01:38.907Z,2.10
2018-05-21T11:04:06.474Z,1.80
2018-05-21T11:06:34.784Z,2.20
2018-05-21T11:09:02.355Z,1.97
2018-05-21T11:11:29.893Z,2.33
2018-05-21T11:13:57.440Z,2.20
2018-05-21T11:16:24.966Z,2.27
2018-05-21T11:18:52.825Z,1.93
2018-05-21T11:21:20.349Z,2.17
2018-05-21T11:23:47.880Z,2.10
2018-05-21T11:26:15.404Z,2.20
2018-05-21T11:28:42.957Z,2.20
2018-05-21T11:31:11.294Z,1.43
2018-05-21T11:33:38.813Z,2.13
2018-05-21T11:36:06.340Z,2.00
2018-05-21T11:38:33.865Z,1.97
2018-05-21T11:41:01.391Z,2.10
2018-05-21T11:43:28.913Z,2.20
2018-05-21T11:45:56.452Z,2.77
2018-05-21T11:48:23.978Z,2.30
2018-05-21T11:50:51.522Z,2.10
2018-05-21T11:53:19.060Z,2.17
2018-05-21T11:55:46.608Z,1.90
2018-05-21T11:58:14.159Z,1.97
2018-05-21T12:00:41.713Z,2.10
2018-05-21T12:03:09.248Z,2.50
2018-05-21T12:05:36.776Z,2.20
2018-05-21T12:08:04.405Z,2.50
2018-05-21T12:10:32.720Z,2.50
2018-05-21T12:13:00.236Z,2.30
2018-05-21T12:15:27.774Z,2.40
2018-05-21T12:17:55.296Z,1.97
2018-05-21T12:20:22.843Z,2.20
2018-05-21T12:22:50.386Z,2.40
2018-05-21T12:25:17.944Z,2.20
2018-05-21T12:27:45.484Z,2.50
2018-05-21T12:30:13.038Z,2.10
2018-05-21T12:32:40.561Z,2.43
2018-05-21T12:35:08.101Z,2.20
2018-05-21T12:37:35.660Z,2.17
2018-05-21T12:40:03.232Z,2.17
2018-05-21T12:42:30.784Z,2.23
2018-05-21T12:44:58.309Z,2.40
2018-05-21T12:47:25.841Z,2.30
2018-05-21T12:49:53.369Z,2.33
2018-05-21T12:52:20.933Z,2.03
2018-05-21T12:54:48.514Z,1.97
2018-05-21T12:57:16.037Z,2.10
2018-05-21T12:59:43.563Z,2.33
2018-05-21T13:02:11.126Z,2.20
2018-05-21T13:04:38.651Z,2.10
2018-05-21T13:07:06.207Z,2.50
2018-05-21T13:09:34.502Z,2.20
2018-05-21T13:12:02.808Z,2.00
2018-05-21T13:14:30.335Z,2.17
2018-05-21T13:16:57.885Z,2.30
2018-05-21T13:19:26.182Z,2.40
2018-05-21T13:21:53.724Z,2.00
2018-05-21T13:24:21.359Z,2.40
2018-05-21T13:26:48.880Z,2.10
2018-05-21T13:29:16.403Z,2.50
2018-05-21T13:31:43.969Z,2.17
2018-05-21T13:34:11.488Z,1.90
2018-05-21T13:36:39.045Z,1.90
2018-05-21T13:39:06.565Z,2.40
2018-05-21T13:41:34.157Z,2.20
2018-05-21T13:44:01.683Z,2.43
2018-05-21T13:46:29.218Z,2.40
2018-05-21T13:48:56.747Z,2.43
2018-05-21T13:51:24.310Z,2.00
2018-05-21T13:53:51.842Z,2.17
2018-05-21T13:56:19.360Z,2.03
2018-05-21T13:58:46.911Z,2.30
2018-05-21T14:01:14.440Z,2.33
2018-05-21T14:03:42.745Z,2.87
2018-05-21T14:06:10.288Z,2.33
2018-05-21T14:08:37.832Z,2.00
2018-05-21T14:11:06.133Z,2.30
2018-05-21T14:13:33.696Z,2.07
2018-05-21T14:16:01.224Z,2.37
2018-05-21T14:18:28.788Z,2.23
2018-05-21T14:20:56.315Z,2.57
2018-05-21T14:23:23.869Z,2.20
2018-05-21T14:25:51.405Z,2.20
2018-05-21T14:28:19.349Z,2.33
2018-05-21T14:30:46.893Z,2.37
2018-05-21T14:33:15.680Z,2.63
2018-05-21T14:35:43.149Z,2.67
2018-05-21T14:38:10.895Z,2.30
2018-05-21T14:40:38.416Z,1.80
2018-05-21T14:43:05.945Z,2.07
2018-05-21T14:45:33.542Z,2.10
2018-05-21T14:48:01.112Z,2.63
2018-05-21T14:50:28.635Z,2.30
2018-05-21T14:52:56.177Z,2.40
2018-05-21T14:55:23.696Z,2.30
2018-05-21T14:57:51.234Z,2.30
2018-05-21T15:00:18.770Z,2.20
2018-05-21T15:02:46.385Z,2.03
2018-05-21T15:05:13.989Z,2.73
2018-05-21T15:07:41.552Z,2.30
2018-05-21T15:10:09.069Z,2.30
2018-05-21T15:12:36.624Z,1.87
2018-05-21T15:15:04.196Z,2.00
2018-05-21T15:17:31.735Z,2.33
2018-05-21T15:20:00.051Z,2.47
2018-05-21T15:22:27.588Z,2.27
2018-05-21T15:24:55.157Z,2.27
2018-05-21T15:27:22.689Z,2.37
2018-05-21T15:29:50.248Z,2.13
2018-05-21T15:32:17.776Z,2.37
2018-05-21T15:34:46.103Z,2.37
2018-05-21T15:37:14.089Z,2.23
2018-05-21T15:39:41.664Z,2.40
2018-05-21T15:42:09.203Z,2.07
2018-05-21T15:44:36.751Z,2.30
2018-05-21T15:47:04.280Z,2.20
2018-05-21T15:49:31.830Z,2.50
2018-05-21T15:52:00.125Z,1.87
2018-05-21T15:54:28.162Z,2.50
2018-05-21T15:56:55.686Z,1.90
2018-05-21T15:59:24.114Z,2.07
2018-05-21T16:01:52.479Z,2.20
2018-05-21T16:04:20.791Z,2.33
2018-05-21T16:06:48.317Z,2.23
2018-05-21T16:09:15.965Z,2.10
2018-05-21T16:11:43.459Z,2.37
2018-05-21T16:14:11.012Z,1.93
2018-05-21T16:16:38.547Z,2.20
2018-05-21T16:19:07.053Z,2.53
2018-05-21T16:21:34.593Z,1.90
2018-05-21T16:24:02.951Z,2.30
2018-05-21T16:26:30.471Z,2.10
2018-05-21T16:28:58.176Z,2.30
2018-05-21T16:31:26.768Z,2.13
2018-05-21T16:33:54.289Z,2.70
2018-05-21T16:36:21.841Z,2.30
2018-05-21T16:38:49.438Z,2.40
2018-05-21T16:41:16.988Z,2.10
2018-05-21T16:43:44.666Z,2.50
2018-05-21T16:46:12.237Z,2.00
2018-05-21T16:48:39.777Z,2.47
2018-05-21T16:51:07.325Z,2.57
2018-05-21T16:53:34.868Z,2.13
2018-05-21T16:56:02.596Z,2.53
2018-05-21T16:58:30.126Z,2.60
2018-05-21T17:00:57.765Z,2.33
2018-05-21T17:03:25.292Z,2.50
2018-05-21T17:05:52.997Z,2.60
2018-05-21T17:08:20.511Z,2.47
2018-05-21T17:10:48.050Z,2.20
2018-05-21T17:13:15.575Z,1.97
2018-05-21T17:15:43.137Z,2.30
2018-05-21T17:18:10.680Z,2.27
2018-05-21T17:20:39.083Z,2.37
2018-05-21T17:23:06.603Z,2.10
2018-05-21T17:25:34.177Z,2.00
2018-05-21T17:28:01.718Z,2.10
2018-05-21T17:30:29.260Z,2.40
2018-05-21T17:32:56.785Z,2.20
2018-05-21T17:35:24.380Z,2.23
2018-05-21T17:37:51.886Z,2.17
2018-05-21T17:40:19.603Z,2.47
2018-05-21T17:42:47.397Z,2.50
2018-05-21T17:45:15.700Z,2.43
2018-05-21T17:47:43.243Z,2.60
2018-05-21T17:50:10.875Z,2.73
2018-05-21T17:52:38.414Z,2.90
2018-05-21T17:55:05.940Z,3.13
2018-05-21T17:57:33.487Z,2.90
2018-05-21T18:00:01.021Z,2.80
2018-05-21T18:02:28.582Z,2.23
2018-05-21T18:04:56.887Z,2.50
2018-05-21T18:07:25.360Z,2.57
2018-05-21T18:09:52.884Z,2.63
2018-05-21T18:12:20.464Z,2.47
2018-05-21T18:14:47.968Z,2.20
2018-05-21T18:17:15.518Z,2.30
2018-05-21T18:19:43.120Z,2.23
2018-05-21T18:22:10.669Z,2.30
2018-05-21T18:24:38.983Z,2.30
2018-05-21T18:27:06.529Z,2.43
2018-05-21T18:29:34.823Z,2.27
2018-05-21T18:32:02.390Z,2.50
2018-05-21T18:34:29.914Z,2.40
2018-05-21T18:36:57.492Z,2.60
2018-05-21T18:39:25.219Z,2.37
2018-05-21T18:41:52.759Z,2.50
2018-05-21T18:44:20.288Z,2.80
2018-05-21T18:46:47.850Z,2.47
2018-05-21T18:49:15.399Z,2.60
2018-05-21T18:51:42.943Z,2.43
2018-05-21T18:54:10.513Z,2.40
2018-05-21T18:56:38.068Z,2.70
2018-05-21T18:59:06.399Z,2.73
2018-05-21T19:01:34.153Z,2.70
2018-05-21T19:04:01.694Z,2.53
2018-05-21T19:06:29.233Z,2.50
2018-05-21T19:08:56.790Z,2.47
2018-05-21T19:11:24.330Z,2.90
2018-05-21T19:13:51.887Z,2.73
2018-05-21T19:16:19.429Z,3.00
2018-05-21T19:18:46.999Z,2.60
2018-05-21T19:21:14.583Z,2.73
2018-05-21T19:23:42.152Z,2.70
2018-05-21T19:26:09.688Z,2.67
2018-05-21T19:28:37.427Z,3.17
2018-05-21T19:31:04.953Z,2.63
2018-05-21T19:33:32.495Z,2.30
2018-05-21T19:36:00.045Z,2.70
2018-05-21T19:38:27.605Z,2.70
2018-05-21T19:40:55.299Z,2.50
2018-05-21T19:43:22.864Z,2.43
2018-05-21T19:45:50.395Z,2.70
2018-05-21T19:48:17.952Z,2.50
2018-05-21T19:50:45.569Z,2.50
2018-05-21T19:53:13.259Z,2.57
2018-05-21T19:55:40.874Z,2.60
2018-05-21T19:58:08.447Z,2.73
2018-05-21T20:00:35.980Z,2.90
2018-05-21T20:03:03.520Z,2.87
2018-05-21T20:05:32.011Z,2.53
2018-05-21T20:07:59.549Z,2.83
2018-05-21T20:10:27.149Z,3.10
2018-05-21T20:12:55.489Z,2.60
2018-05-21T20:15:23.048Z,2.97
2018-05-21T20:18:00.347Z,2.77
2018-05-21T20:20:39.645Z,2.90
2018-05-21T20:23:07.723Z,2.70
2018-05-21T20:25:35.359Z,3.00
2018-05-21T20:28:02.925Z,2.60
2018-05-21T20:30:30.573Z,2.70
2018-05-21T20:33:03.638Z,2.70
2018-05-21T20:35:31.351Z,2.80
2018-05-21T20:37:58.926Z,3.10
2018-05-21T20:40:26.473Z,2.60
2018-05-21T20:42:54.000Z,2.70
2018-05-21T20:45:21.851Z,2.43
2018-05-21T20:47:49.489Z,2.63
2018-05-21T20:50:17.818Z,2.70
2018-05-21T20:52:45.341Z,2.67
2018-05-21T20:55:12.921Z,2.70
2018-05-21T20:57:40.441Z,2.70
2018-05-21T21:00:07.993Z,2.50
2018-05-21T21:02:35.612Z,2.60
2018-05-21T21:05:03.150Z,2.90
2018-05-21T21:07:30.680Z,2.70
2018-05-21T21:09:58.984Z,2.80
2018-05-21T21:12:26.551Z,2.63
2018-05-21T21:14:54.860Z,3.27
2018-05-21T21:17:22.405Z,3.20
2018-05-21T21:19:49.944Z,3.23
2018-05-21T21:22:17.498Z,3.33
2018-05-21T21:24:45.019Z,3.57
2018-05-21T21:27:12.569Z,3.40
2018-05-21T21:29:40.917Z,3.20
2018-05-21T21:32:08.465Z,3.40
2018-05-21T21:34:35.996Z,3.70
2018-05-21T21:37:03.563Z,3.57
2018-05-21T21:39:31.095Z,3.63
2018-05-21T21:41:59.405Z,3.70
2018-05-21T21:44:26.924Z,3.27
2018-05-21T21:46:55.239Z,3.40
2018-05-21T21:49:22.773Z,3.40
2018-05-21T21:51:50.371Z,3.43
2018-05-21T21:54:17.900Z,3.40
2018-05-21T21:56:45.437Z,3.40
2018-05-21T21:59:12.985Z,3.50
2018-05-21T22:01:40.538Z,3.40
2018-05-21T22:04:08.221Z,3.60
2018-05-21T22:06:35.762Z,4.20
2018-05-21T22:09:03.275Z,4.13
2018-05-21T22:11:30.829Z,4.20
2018-05-21T22:13:58.380Z,4.30
2018-05-21T22:16:25.973Z,3.80
2018-05-21T22:18:53.497Z,4.83
2018-05-21T22:21:21.142Z,5.07
2018-05-21T22:23:48.675Z,4.37
2018-05-21T22:26:16.991Z,4.70
2018-05-21T22:28:45.348Z,5.10
2018-05-21T22:31:12.949Z,5.63
2018-05-21T22:33:40.488Z,4.67
2018-05-21T22:36:08.026Z,4.50
2018-05-21T22:38:35.560Z,4.63
2018-05-21T22:41:03.839Z,4.47
2018-05-21T22:43:31.376Z,4.20
2018-05-21T22:45:58.905Z,4.43
2018-05-21T22:48:26.437Z,4.37
2018-05-21T22:50:53.964Z,4.33
2018-05-21T22:53:21.503Z,3.97
2018-05-21T22:55:49.029Z,5.07
2018-05-21T22:58:16.579Z,4.60
2018-05-21T23:00:44.101Z,4.67
2018-05-21T23:03:11.635Z,4.40
2018-05-21T23:05:39.947Z,5.03
2018-05-21T23:08:07.495Z,4.87
2018-05-21T23:10:35.781Z,5.20
2018-05-21T23:13:03.323Z,4.90
2018-05-21T23:15:31.598Z,4.73
2018-05-21T23:17:59.896Z,4.57
2018-05-21T23:20:27.439Z,4.50
2018-05-21T23:22:54.981Z,4.13
2018-05-21T23:25:23.279Z,4.93
2018-05-21T23:27:50.829Z,4.67
2018-05-21T23:30:18.375Z,4.30
2018-05-21T23:32:45.905Z,4.57
2018-05-21T23:35:13.433Z,4.17
2018-05-21T23:37:41.744Z,4.13
2018-05-21T23:40:09.272Z,4.57
2018-05-21T23:42:36.826Z,4.40
2018-05-21T23:45:04.348Z,4.50
2018-05-21T23:47:31.869Z,3.97
2018-05-21T23:49:59.403Z,4.10
2018-05-21T23:52:26.933Z,4.00
2018-05-21T23:54:54.463Z,4.50
2018-05-21T23:57:22.051Z,3.70
2018-05-21T23:59:49.593Z,4.30
